x

Yucatan Basin - 120 Nm Ese Of Cozumel, Mx (42056) Wave Buoy

9:50 - Mon 1st Jun 2015 All times are CDT. -5 hours from GMT.

  • Sig Wave height 3.3ft
  • Swell Direction
  • Peak Period 5s
  • Average Period 4s
  • Wind
    11mph, 16mph gusts
  • Sea Temp 83°f
  • Aire Temp 75°f
  • Sea Pressure 1016.4mb
  •  Yucatan Basin - 120 Nm Ese Of Cozumel, Mx
  •  Yucatan Basin - 120 Nm Ese Of Cozumel, Mx

More Historic Weather Station data

Upgrade to MSW Pro to gain access to the past 30 days of data for over 8000 Wavebouys and Weather Stations around the globe.

Join Pro

Comparision Forecast

View Surf forecast
   
lun 06/01 9:50 3.5ft 5s 4s 11 16 mph 1016.4mb 83f 75f
8:50 3ft 5s 5s 9 16 mph 1015.5mb 83f 81f
7:50 3ft 5s 4s 7
mph
1014.6mb 83f 81f
5:50 3.5ft 5s 4s 11 13 mph 1013.9mb 83f 81f
4:50 3.5ft 6s 4s 11 13 mph 1013.8mb 83f 81f
3:50 3.5ft 4s 4s 16 18 mph 1013.9mb 83f 81f
2:50 3.5ft 5s 4s 11
mph
1014.1mb 83f 79f
1:50 3.5ft 5s 4s 16 22 mph 1014.5mb 83f 79f
12:50 3.5ft 5s 4s 18 20 mph 1014.8mb 83f 82f
11:50 2.5ft 5s 4s 16 20 mph 1015.5mb 83f 83f
10:50 2.5ft 5s 4s 18 20 mph 1015.4mb 83f 83f
9:50 3ft 5s 4s 16 18 mph 1015.5mb 83f 83f
8:50 3ft 5s 4s 13 16 mph 1015.2mb 83f 83f
7:50 3ft 5s 4s 11 13 mph 1014.9mb 83f 83f
6:50 2.5ft 5s 4s 13 16 mph 1014.7mb 83f 83f
5:50 2.5ft 5s 4s 13 16 mph 1014.4mb 83f 83f
4:50 2.5ft 5s 4s 13 16 mph 1014mb 83f 82f
3:50 2.5ft 5s 4s 11 13 mph 1013.9mb 83f 82f
2:50 2.5ft 5s 4s 11 13 mph 1013.6mb 83f 82f
1:50 2.5ft 5s 4s 9 11 mph 1013.9mb 83f 82f
12:50 2.5ft 5s 4s 9 11 mph 1014.7mb 83f 82f
dom 05/31 11:50 3ft 5s 4s 11
mph
1015.2mb 83f 82f
10:50 3ft 5s 4s 13 16 mph 1015.1mb 83f 83f
9:50 3ft 5s 4s 11 13 mph 1015.2mb 83f 82f
8:50 3ft 5s 4s 11 13 mph 1014.8mb 83f 82f
7:50 3.5ft 5s 4s 16 18 mph 1014.5mb 83f 83f
6:50 3.5ft 5s 4s 16 18 mph 1014mb 83f 83f
5:50 3ft 6s 4s 16 18 mph 1013.4mb 83f 83f
4:50 3ft 5s 4s 13 16 mph 1013.2mb 83f 83f
3:50 3ft 5s 4s 16 18 mph 1013.8mb 83f 83f
2:50 3ft 6s 4s 16 20 mph 1014.1mb 83f 83f
1:50 3ft 5s 4s 16 18 mph 1014.8mb 83f 83f
12:50 3ft 5s 4s 16 18 mph 1014.9mb 83f 83f
11:50 2.5ft 6s 4s 16 18 mph 1014.8mb 83f 83f
10:50 2.5ft 6s 4s 13 18 mph 1014.8mb 83f 83f
9:50 2.5ft 6s 4s 13 16 mph 1014.7mb 83f 82f
8:50 3ft 6s 5s 11 13 mph 1014.6mb 83f 83f
7:50 2.5ft 6s 5s 11 13 mph 1014.2mb 83f 82f
6:50 2.5ft 6s 5s 9 11 mph 1014mb 83f 82f
5:50 2.5ft 5s 4s 9 11 mph 1013.7mb 83f 82f
4:50 2.5ft 5s 4s 11 13 mph 1013.4mb 83f 82f
3:50 2.5ft 5s 4s 11 13 mph 1013mb 83f 82f
2:50 2.5ft 5s 4s 11 13 mph 1013.1mb 83f 82f
1:50 2.5ft 5s 4s 11 16 mph 1013.1mb 83f 82f
12:50 2.5ft 6s 4s 16 18 mph 1013.4mb 83f 82f
sáb 05/30 11:50 2.5ft 6s 4s 13 18 mph 1013.9mb 83f 82f
10:50 2.5ft 7s 4s 13 18 mph 1014.5mb 83f 82f
9:50 2.5ft 6s 5s 13
mph
1014.1mb 83f 83f
8:50 2.5ft 6s 5s 9 11 mph 1013.8mb 83f 82f
7:50 2.5ft 6s 5s 11
mph
1013.7mb 83f 83f
6:50 2.5ft 6s 5s 9 11 mph 1013.5mb 83f 83f
5:50 2.5ft 7s 5s 9 11 mph 1013.3mb 84f 83f
4:50 2.5ft 6s 5s 7 9 mph 1013.2mb 84f 82f
3:50 3ft 6s 5s 4 7 mph 1013.6mb 84f 83f
2:50 3ft 7s 5s 7 9 mph 1013.9mb 84f 82f
1:50 2.5ft 6s 5s 7 9 mph 1014.4mb 84f 82f
12:50 2.5ft 6s 5s 7
mph
1014.8mb 84f 82f
11:50 3ft 6s 5s 7 9 mph 1015.1mb 83f 82f
10:50 2.5ft 6s 5s 4
mph
1015.1mb 83f 82f
9:50 3ft 6s 5s 4 7 mph 1014.8mb 83f 82f
8:50 3.5ft 6s 5s 7 9 mph 1014.8mb 82f 82f
7:50 3.5ft 6s 5s 9 11 mph 1014.4mb 82f 82f
6:50 3.5ft 7s 5s 7 9 mph 1013.8mb 82f 82f
5:50 3.5ft 6s 5s 9 11 mph 1013.2mb 82f 81f
4:50 3.5ft 7s 5s 11 13 mph 1013mb 82f 81f
3:50 3.5ft 7s 5s 11 13 mph 1012.7mb 82f 81f
2:50 3.5ft 7s 5s 11
mph
1013mb 83f 81f
1:50 3.5ft 7s 6s 11 13 mph 1013.6mb 83f 81f
12:50 3.5ft 6s 5s 9 11 mph 1014.4mb 82f 81f
vie 05/29 11:50 3.5ft 6s 5s 9 11 mph 1014.9mb 83f 81f
10:50 3ft 6s 5s 9 11 mph 1015.2mb 83f 82f
9:50 3ft 7s 5s 7
mph
1014.9mb 83f 82f
8:50 3ft 7s 5s 4
mph
1014.5mb 83f 81f
7:50 3ft 7s 5s 2 4 mph 1014mb 83f 81f
6:50 3ft 6s 5s 4 7 mph 1013.7mb 83f 81f
5:50 3ft 7s 5s 4 7 mph 1013.5mb 83f 82f
4:50 3ft 6s 5s 4 7 mph 1013.4mb 83f 82f
3:50 3ft 7s 5s 9 11 mph 1013.1mb 83f 81f
2:50 3ft 7s 5s 7 11 mph 1014mb 84f 82f
1:50 3ft 7s 5s 9 11 mph 1014.7mb 83f 82f
12:50 3.5ft 6s 5s 9 13 mph 1014.8mb 83f 82f
11:50 3ft 7s 5s 9 11 mph 1015mb 83f 82f
10:50 3.5ft 6s 5s 13 16 mph 1014.5mb 83f 82f
9:50 3.5ft 7s 5s 11 13 mph 1014.7mb 83f 82f
8:50 3.5ft 7s 5s 11 13 mph 1014.6mb 83f 82f
7:50 3.5ft 6s 5s 11 13 mph 1014mb 83f 82f
6:50 3.5ft 7s 5s 11 13 mph 1013.3mb 83f 81f
5:50 4ft 7s 5s 9 11 mph 1012.7mb 83f 81f
4:50 4.5ft 7s 5s 9 11 mph 1012.3mb 83f 80f